sensor_id;sensor_type;location;lat;lon;timestamp;P1;durP1;ratioP1;P2;durP2;ratioP2
61531;SDS011;47397;48.194;11.632;2023-04-15T00:00:32;4.22;;;2.22;;
61531;SDS011;47397;48.194;11.632;2023-04-15T00:01:32;4.15;;;2.25;;
61531;SDS011;47397;48.194;11.632;2023-04-15T00:02:33;4.55;;;2.40;;
61531;SDS011;47397;48.194;11.632;2023-04-15T00:03:33;4.22;;;2.33;;
61531;SDS011;47397;48.194;11.632;2023-04-15T00:04:34;4.50;;;2.40;;
61531;SDS011;47397;48.194;11.632;2023-04-15T00:05:34;2.95;;;2.20;;
61531;SDS011;47397;48.194;11.632;2023-04-15T00:06:35;4.32;;;2.40;;
61531;SDS011;47397;48.194;11.632;2023-04-15T00:07:36;4.70;;;2.50;;
61531;SDS011;47397;48.194;11.632;2023-04-15T00:08:36;4.32;;;2.50;;
61531;SDS011;47397;48.194;11.632;2023-04-15T00:09:37;4.63;;;2.50;;
61531;SDS011;47397;48.194;11.632;2023-04-15T00:10:38;4.93;;;2.40;;
61531;SDS011;47397;48.194;11.632;2023-04-15T00:11:38;3.60;;;2.50;;
61531;SDS011;47397;48.194;11.632;2023-04-15T00:12:38;5.13;;;2.58;;
61531;SDS011;47397;48.194;11.632;2023-04-15T00:13:40;4.40;;;2.40;;
61531;SDS011;47397;48.194;11.632;2023-04-15T00:14:41;3.55;;;2.38;;
61531;SDS011;47397;48.194;11.632;2023-04-15T00:15:41;5.78;;;2.58;;
61531;SDS011;47397;48.194;11.632;2023-04-15T00:16:42;6.88;;;2.90;;
61531;SDS011;47397;48.194;11.632;2023-04-15T00:17:42;5.38;;;2.63;;
61531;SDS011;47397;48.194;11.632;2023-04-15T00:18:43;4.68;;;2.38;;
61531;SDS011;47397;48.194;11.632;2023-04-15T00:19:43;3.92;;;2.53;;
61531;SDS011;47397;48.194;11.632;2023-04-15T00:20:43;5.75;;;2.83;;
61531;SDS011;47397;48.194;11.632;2023-04-15T00:21:44;4.30;;;2.60;;
61531;SDS011;47397;48.194;11.632;2023-04-15T00:22:44;4.15;;;2.60;;
61531;SDS011;47397;48.194;11.632;2023-04-15T00:23:45;5.07;;;2.40;;
61531;SDS011;47397;48.194;11.632;2023-04-15T00:24:45;4.45;;;2.83;;
61531;SDS011;47397;48.194;11.632;2023-04-15T00:25:45;3.60;;;2.33;;
61531;SDS011;47397;48.194;11.632;2023-04-15T00:26:46;5.65;;;2.53;;
61531;SDS011;47397;48.194;11.632;2023-04-15T00:27:46;4.70;;;2.55;;
61531;SDS011;47397;48.194;11.632;2023-04-15T00:28:48;5.88;;;3.10;;
61531;SDS011;47397;48.194;11.632;2023-04-15T00:29:49;4.03;;;2.78;;
61531;SDS011;47397;48.194;11.632;2023-04-15T00:30:49;5.38;;;3.13;;
61531;SDS011;47397;48.194;11.632;2023-04-15T00:31:49;3.72;;;2.67;;
61531;SDS011;47397;48.194;11.632;2023-04-15T00:32:50;5.47;;;2.70;;
61531;SDS011;47397;48.194;11.632;2023-04-15T00:33:50;5.93;;;2.78;;
61531;SDS011;47397;48.194;11.632;2023-04-15T00:34:50;3.53;;;2.50;;
61531;SDS011;47397;48.194;11.632;2023-04-15T00:35:51;5.53;;;2.60;;
61531;SDS011;47397;48.194;11.632;2023-04-15T00:36:51;3.70;;;2.58;;
61531;SDS011;47397;48.194;11.632;2023-04-15T00:37:52;5.13;;;2.95;;
61531;SDS011;47397;48.194;11.632;2023-04-15T00:38:52;4.25;;;2.85;;
61531;SDS011;47397;48.194;11.632;2023-04-15T00:39:53;4.32;;;2.75;;
61531;SDS011;47397;48.194;11.632;2023-04-15T00:40:53;4.78;;;2.78;;
61531;SDS011;47397;48.194;11.632;2023-04-15T00:41:54;5.60;;;2.80;;
61531;SDS011;47397;48.194;11.632;2023-04-15T00:42:55;5.25;;;3.08;;
61531;SDS011;47397;48.194;11.632;2023-04-15T00:43:57;5.13;;;3.00;;
61531;SDS011;47397;48.194;11.632;2023-04-15T00:44:57;5.20;;;2.92;;
61531;SDS011;47397;48.194;11.632;2023-04-15T00:45:58;5.00;;;3.00;;
61531;SDS011;47397;48.194;11.632;2023-04-15T00:46:59;4.20;;;2.70;;
61531;SDS011;47397;48.194;11.632;2023-04-15T00:48:00;3.88;;;3.00;;
61531;SDS011;47397;48.194;11.632;2023-04-15T00:49:01;4.82;;;2.72;;
61531;SDS011;47397;48.194;11.632;2023-04-15T00:50:04;4.50;;;2.90;;
61531;SDS011;47397;48.194;11.632;2023-04-15T00:51:05;5.53;;;2.88;;
61531;SDS011;47397;48.194;11.632;2023-04-15T00:52:05;4.60;;;3.30;;
61531;SDS011;47397;48.194;11.632;2023-04-15T00:53:06;5.20;;;2.70;;
61531;SDS011;47397;48.194;11.632;2023-04-15T00:54:06;5.28;;;2.85;;
61531;SDS011;47397;48.194;11.632;2023-04-15T00:55:07;5.90;;;3.00;;
61531;SDS011;47397;48.194;11.632;2023-04-15T00:56:08;4.03;;;2.78;;
61531;SDS011;47397;48.194;11.632;2023-04-15T00:57:08;5.82;;;3.13;;
61531;SDS011;47397;48.194;11.632;2023-04-15T00:58:09;4.82;;;3.00;;
61531;SDS011;47397;48.194;11.632;2023-04-15T00:59:11;3.30;;;2.58;;
61531;SDS011;47397;48.194;11.632;2023-04-15T01:00:13;5.97;;;2.85;;
61531;SDS011;47397;48.194;11.632;2023-04-15T01:01:14;5.22;;;2.92;;
61531;SDS011;47397;48.194;11.632;2023-04-15T01:02:14;7.22;;;3.05;;
61531;SDS011;47397;48.194;11.632;2023-04-15T01:03:15;5.32;;;3.10;;
61531;SDS011;47397;48.194;11.632;2023-04-15T01:04:15;5.70;;;2.97;;
61531;SDS011;47397;48.194;11.632;2023-04-15T01:05:16;3.78;;;2.65;;
61531;SDS011;47397;48.194;11.632;2023-04-15T01:06:17;5.65;;;2.97;;
61531;SDS011;47397;48.194;11.632;2023-04-15T01:07:17;4.15;;;2.83;;
61531;SDS011;47397;48.194;11.632;2023-04-15T01:08:18;5.72;;;2.92;;
61531;SDS011;47397;48.194;11.632;2023-04-15T01:09:18;6.07;;;3.35;;
61531;SDS011;47397;48.194;11.632;2023-04-15T01:10:18;6.60;;;3.40;;
61531;SDS011;47397;48.194;11.632;2023-04-15T01:11:19;8.50;;;3.00;;
61531;SDS011;47397;48.194;11.632;2023-04-15T01:12:19;5.05;;;2.97;;
61531;SDS011;47397;48.194;11.632;2023-04-15T01:13:20;5.40;;;2.90;;
61531;SDS011;47397;48.194;11.632;2023-04-15T01:14:23;4.80;;;3.33;;
61531;SDS011;47397;48.194;11.632;2023-04-15T01:15:24;5.00;;;3.10;;
61531;SDS011;47397;48.194;11.632;2023-04-15T01:16:24;5.65;;;3.53;;
61531;SDS011;47397;48.194;11.632;2023-04-15T01:17:25;6.90;;;3.42;;
61531;SDS011;47397;48.194;11.632;2023-04-15T01:18:25;5.88;;;3.55;;
61531;SDS011;47397;48.194;11.632;2023-04-15T01:19:26;4.60;;;3.20;;
61531;SDS011;47397;48.194;11.632;2023-04-15T01:20:27;5.47;;;3.08;;
61531;SDS011;47397;48.194;11.632;2023-04-15T01:21:28;4.20;;;2.88;;
61531;SDS011;47397;48.194;11.632;2023-04-15T01:22:28;6.43;;;4.05;;
61531;SDS011;47397;48.194;11.632;2023-04-15T01:23:29;6.72;;;3.65;;
61531;SDS011;47397;48.194;11.632;2023-04-15T01:24:30;5.38;;;3.25;;
61531;SDS011;47397;48.194;11.632;2023-04-15T01:25:33;5.65;;;3.00;;
61531;SDS011;47397;48.194;11.632;2023-04-15T01:26:33;5.68;;;3.38;;
61531;SDS011;47397;48.194;11.632;2023-04-15T01:27:34;4.00;;;2.95;;
61531;SDS011;47397;48.194;11.632;2023-04-15T01:28:38;7.00;;;3.83;;
61531;SDS011;47397;48.194;11.632;2023-04-15T01:29:38;5.97;;;3.28;;
61531;SDS011;47397;48.194;11.632;2023-04-15T01:30:38;4.38;;;3.22;;
61531;SDS011;47397;48.194;11.632;2023-04-15T01:31:39;4.53;;;3.00;;
61531;SDS011;47397;48.194;11.632;2023-04-15T01:32:39;5.10;;;3.03;;
61531;SDS011;47397;48.194;11.632;2023-04-15T01:33:40;5.40;;;3.92;;
61531;SDS011;47397;48.194;11.632;2023-04-15T01:34:41;5.70;;;3.08;;
61531;SDS011;47397;48.194;11.632;2023-04-15T01:35:42;5.05;;;3.65;;
61531;SDS011;47397;48.194;11.632;2023-04-15T01:36:42;4.53;;;3.35;;
61531;SDS011;47397;48.194;11.632;2023-04-15T01:37:42;4.80;;;3.20;;
61531;SDS011;47397;48.194;11.632;2023-04-15T01:38:43;4.93;;;3.33;;
61531;SDS011;47397;48.194;11.632;2023-04-15T01:39:44;5.35;;;3.83;;
61531;SDS011;47397;48.194;11.632;2023-04-15T01:40:46;5.30;;;3.15;;
61531;SDS011;47397;48.194;11.632;2023-04-15T01:41:46;6.45;;;3.28;;
61531;SDS011;47397;48.194;11.632;2023-04-15T01:42:47;6.38;;;3.58;;
61531;SDS011;47397;48.194;11.632;2023-04-15T01:43:47;5.32;;;3.15;;
61531;SDS011;47397;48.194;11.632;2023-04-15T01:44:47;5.55;;;3.50;;
61531;SDS011;47397;48.194;11.632;2023-04-15T01:45:48;5.60;;;3.22;;
61531;SDS011;47397;48.194;11.632;2023-04-15T01:46:48;4.97;;;3.42;;
61531;SDS011;47397;48.194;11.632;2023-04-15T01:47:49;4.43;;;3.63;;
61531;SDS011;47397;48.194;11.632;2023-04-15T01:48:49;4.43;;;3.20;;
61531;SDS011;47397;48.194;11.632;2023-04-15T01:49:49;4.32;;;3.25;;
61531;SDS011;47397;48.194;11.632;2023-04-15T01:50:51;5.05;;;3.60;;
61531;SDS011;47397;48.194;11.632;2023-04-15T01:51:51;4.72;;;3.60;;
61531;SDS011;47397;48.194;11.632;2023-04-15T01:52:52;5.60;;;3.63;;
61531;SDS011;47397;48.194;11.632;2023-04-15T01:53:52;3.80;;;2.90;;
61531;SDS011;47397;48.194;11.632;2023-04-15T01:54:53;5.35;;;3.40;;
61531;SDS011;47397;48.194;11.632;2023-04-15T01:55:54;5.53;;;3.63;;
61531;SDS011;47397;48.194;11.632;2023-04-15T01:56:55;6.10;;;3.08;;
61531;SDS011;47397;48.194;11.632;2023-04-15T01:57:55;4.30;;;3.47;;
61531;SDS011;47397;48.194;11.632;2023-04-15T01:58:56;5.40;;;3.42;;
61531;SDS011;47397;48.194;11.632;2023-04-15T01:59:56;4.82;;;3.35;;
61531;SDS011;47397;48.194;11.632;2023-04-15T02:00:56;4.60;;;3.50;;
61531;SDS011;47397;48.194;11.632;2023-04-15T02:01:57;5.28;;;3.20;;
61531;SDS011;47397;48.194;11.632;2023-04-15T02:02:57;5.15;;;3.60;;
61531;SDS011;47397;48.194;11.632;2023-04-15T02:03:58;6.75;;;3.63;;
61531;SDS011;47397;48.194;11.632;2023-04-15T02:04:58;6.65;;;3.60;;
61531;SDS011;47397;48.194;11.632;2023-04-15T02:05:58;4.55;;;3.53;;
61531;SDS011;47397;48.194;11.632;2023-04-15T02:06:59;5.32;;;3.83;;
61531;SDS011;47397;48.194;11.632;2023-04-15T02:07:59;4.75;;;3.33;;
61531;SDS011;47397;48.194;11.632;2023-04-15T02:09:00;5.30;;;3.35;;
61531;SDS011;47397;48.194;11.632;2023-04-15T02:10:00;7.03;;;3.78;;
61531;SDS011;47397;48.194;11.632;2023-04-15T02:11:02;5.22;;;3.40;;
61531;SDS011;47397;48.194;11.632;2023-04-15T02:12:02;4.75;;;3.30;;
61531;SDS011;47397;48.194;11.632;2023-04-15T02:13:03;5.88;;;3.60;;
61531;SDS011;47397;48.194;11.632;2023-04-15T02:14:03;4.90;;;3.58;;
61531;SDS011;47397;48.194;11.632;2023-04-15T02:15:04;7.50;;;3.75;;
61531;SDS011;47397;48.194;11.632;2023-04-15T02:16:14;6.53;;;3.53;;
61531;SDS011;47397;48.194;11.632;2023-04-15T02:17:14;4.43;;;3.47;;
61531;SDS011;47397;48.194;11.632;2023-04-15T02:18:15;5.82;;;3.95;;
61531;SDS011;47397;48.194;11.632;2023-04-15T02:19:16;6.82;;;3.88;;
61531;SDS011;47397;48.194;11.632;2023-04-15T02:20:16;4.25;;;3.30;;
61531;SDS011;47397;48.194;11.632;2023-04-15T02:21:17;4.50;;;3.35;;
61531;SDS011;47397;48.194;11.632;2023-04-15T02:22:18;4.25;;;3.30;;
61531;SDS011;47397;48.194;11.632;2023-04-15T02:23:18;5.63;;;3.30;;
61531;SDS011;47397;48.194;11.632;2023-04-15T02:24:19;5.25;;;3.25;;
61531;SDS011;47397;48.194;11.632;2023-04-15T02:25:19;7.47;;;3.75;;
61531;SDS011;47397;48.194;11.632;2023-04-15T02:26:21;5.13;;;3.22;;
61531;SDS011;47397;48.194;11.632;2023-04-15T02:27:21;7.47;;;3.40;;
61531;SDS011;47397;48.194;11.632;2023-04-15T02:28:22;5.95;;;3.47;;
61531;SDS011;47397;48.194;11.632;2023-04-15T02:29:22;5.00;;;3.80;;
61531;SDS011;47397;48.194;11.632;2023-04-15T02:30:23;4.53;;;3.65;;
61531;SDS011;47397;48.194;11.632;2023-04-15T02:31:23;4.60;;;3.50;;
61531;SDS011;47397;48.194;11.632;2023-04-15T02:32:24;4.25;;;3.17;;
61531;SDS011;47397;48.194;11.632;2023-04-15T02:33:24;6.28;;;3.80;;
61531;SDS011;47397;48.194;11.632;2023-04-15T02:34:24;4.22;;;3.42;;
61531;SDS011;47397;48.194;11.632;2023-04-15T02:35:25;5.25;;;3.40;;
61531;SDS011;47397;48.194;11.632;2023-04-15T02:36:26;5.93;;;3.75;;
61531;SDS011;47397;48.194;11.632;2023-04-15T02:37:26;6.07;;;3.58;;
61531;SDS011;47397;48.194;11.632;2023-04-15T02:38:26;5.07;;;3.35;;
61531;SDS011;47397;48.194;11.632;2023-04-15T02:39:27;4.38;;;3.20;;
61531;SDS011;47397;48.194;11.632;2023-04-15T02:40:27;4.13;;;2.88;;
61531;SDS011;47397;48.194;11.632;2023-04-15T02:41:29;5.75;;;3.88;;
61531;SDS011;47397;48.194;11.632;2023-04-15T02:42:29;6.25;;;3.88;;
61531;SDS011;47397;48.194;11.632;2023-04-15T02:43:30;4.65;;;3.20;;
61531;SDS011;47397;48.194;11.632;2023-04-15T02:44:30;6.07;;;3.60;;
61531;SDS011;47397;48.194;11.632;2023-04-15T02:45:31;4.82;;;3.53;;
61531;SDS011;47397;48.194;11.632;2023-04-15T02:46:31;5.72;;;3.75;;
61531;SDS011;47397;48.194;11.632;2023-04-15T02:47:31;4.93;;;3.53;;
61531;SDS011;47397;48.194;11.632;2023-04-15T02:48:32;4.97;;;3.30;;
61531;SDS011;47397;48.194;11.632;2023-04-15T02:49:33;5.15;;;3.47;;
61531;SDS011;47397;48.194;11.632;2023-04-15T02:50:33;6.88;;;3.67;;
61531;SDS011;47397;48.194;11.632;2023-04-15T02:51:34;4.65;;;3.13;;
61531;SDS011;47397;48.194;11.632;2023-04-15T02:52:34;5.20;;;3.50;;
61531;SDS011;47397;48.194;11.632;2023-04-15T02:53:34;4.55;;;3.45;;
61531;SDS011;47397;48.194;11.632;2023-04-15T02:54:35;5.57;;;3.35;;
61531;SDS011;47397;48.194;11.632;2023-04-15T02:55:35;5.22;;;3.30;;
61531;SDS011;47397;48.194;11.632;2023-04-15T02:56:37;5.15;;;3.60;;
61531;SDS011;47397;48.194;11.632;2023-04-15T02:57:37;4.55;;;3.17;;
61531;SDS011;47397;48.194;11.632;2023-04-15T02:58:39;4.65;;;3.42;;
61531;SDS011;47397;48.194;11.632;2023-04-15T02:59:39;4.82;;;3.45;;
61531;SDS011;47397;48.194;11.632;2023-04-15T03:00:40;4.80;;;3.38;;
61531;SDS011;47397;48.194;11.632;2023-04-15T03:01:40;5.28;;;3.25;;
61531;SDS011;47397;48.194;11.632;2023-04-15T03:02:41;3.72;;;3.00;;
61531;SDS011;47397;48.194;11.632;2023-04-15T03:03:42;4.88;;;3.28;;
61531;SDS011;47397;48.194;11.632;2023-04-15T03:04:42;4.38;;;3.00;;
61531;SDS011;47397;48.194;11.632;2023-04-15T03:05:43;5.50;;;3.40;;
61531;SDS011;47397;48.194;11.632;2023-04-15T03:06:43;4.45;;;3.28;;
61531;SDS011;47397;48.194;11.632;2023-04-15T03:07:44;5.45;;;3.20;;
61531;SDS011;47397;48.194;11.632;2023-04-15T03:08:44;5.28;;;3.10;;
61531;SDS011;47397;48.194;11.632;2023-04-15T03:09:44;5.13;;;3.13;;
61531;SDS011;47397;48.194;11.632;2023-04-15T03:10:45;4.70;;;3.15;;
61531;SDS011;47397;48.194;11.632;2023-04-15T03:11:47;5.25;;;3.40;;
61531;SDS011;47397;48.194;11.632;2023-04-15T03:12:47;5.65;;;3.35;;
61531;SDS011;47397;48.194;11.632;2023-04-15T03:13:48;5.07;;;3.33;;
61531;SDS011;47397;48.194;11.632;2023-04-15T03:14:48;5.97;;;3.42;;
61531;SDS011;47397;48.194;11.632;2023-04-15T03:15:48;4.60;;;3.10;;
61531;SDS011;47397;48.194;11.632;2023-04-15T03:16:49;4.95;;;3.10;;
61531;SDS011;47397;48.194;11.632;2023-04-15T03:17:49;3.80;;;2.88;;
61531;SDS011;47397;48.194;11.632;2023-04-15T03:18:50;4.95;;;2.78;;
61531;SDS011;47397;48.194;11.632;2023-04-15T03:19:50;5.10;;;3.30;;
61531;SDS011;47397;48.194;11.632;2023-04-15T03:20:50;5.82;;;3.30;;
61531;SDS011;47397;48.194;11.632;2023-04-15T03:21:51;5.13;;;3.40;;
61531;SDS011;47397;48.194;11.632;2023-04-15T03:22:51;4.20;;;3.30;;
61531;SDS011;47397;48.194;11.632;2023-04-15T03:23:52;5.53;;;3.22;;
61531;SDS011;47397;48.194;11.632;2023-04-15T03:24:52;4.88;;;3.17;;
61531;SDS011;47397;48.194;11.632;2023-04-15T03:25:53;4.63;;;3.17;;
61531;SDS011;47397;48.194;11.632;2023-04-15T03:26:54;4.30;;;3.22;;
61531;SDS011;47397;48.194;11.632;2023-04-15T03:27:55;3.50;;;3.05;;
61531;SDS011;47397;48.194;11.632;2023-04-15T03:28:55;4.70;;;3.20;;
61531;SDS011;47397;48.194;11.632;2023-04-15T03:29:56;5.07;;;3.30;;
61531;SDS011;47397;48.194;11.632;2023-04-15T03:30:57;5.88;;;3.45;;
61531;SDS011;47397;48.194;11.632;2023-04-15T03:32:15;4.72;;;3.67;;
61531;SDS011;47397;48.194;11.632;2023-04-15T03:33:16;4.22;;;3.00;;
61531;SDS011;47397;48.194;11.632;2023-04-15T03:34:16;4.13;;;3.17;;
61531;SDS011;47397;48.194;11.632;2023-04-15T03:35:17;4.28;;;3.22;;
61531;SDS011;47397;48.194;11.632;2023-04-15T03:36:17;4.68;;;3.40;;
61531;SDS011;47397;48.194;11.632;2023-04-15T03:37:18;5.03;;;3.55;;
61531;SDS011;47397;48.194;11.632;2023-04-15T03:38:18;5.85;;;3.05;;
61531;SDS011;47397;48.194;11.632;2023-04-15T03:39:18;5.20;;;3.03;;
61531;SDS011;47397;48.194;11.632;2023-04-15T03:40:19;6.53;;;3.28;;
61531;SDS011;47397;48.194;11.632;2023-04-15T03:41:20;5.55;;;3.28;;
61531;SDS011;47397;48.194;11.632;2023-04-15T03:42:22;4.30;;;3.38;;
61531;SDS011;47397;48.194;11.632;2023-04-15T03:43:22;4.00;;;3.28;;
61531;SDS011;47397;48.194;11.632;2023-04-15T03:44:23;4.75;;;2.90;;
61531;SDS011;47397;48.194;11.632;2023-04-15T03:45:23;4.72;;;3.20;;
61531;SDS011;47397;48.194;11.632;2023-04-15T03:46:24;4.75;;;3.08;;
61531;SDS011;47397;48.194;11.632;2023-04-15T03:47:24;5.20;;;3.15;;
61531;SDS011;47397;48.194;11.632;2023-04-15T03:48:25;5.07;;;3.30;;
61531;SDS011;47397;48.194;11.632;2023-04-15T03:49:25;5.50;;;3.17;;
61531;SDS011;47397;48.194;11.632;2023-04-15T03:50:26;4.38;;;3.15;;
61531;SDS011;47397;48.194;11.632;2023-04-15T03:51:26;4.47;;;3.30;;
61531;SDS011;47397;48.194;11.632;2023-04-15T03:52:26;5.60;;;3.30;;
61531;SDS011;47397;48.194;11.632;2023-04-15T03:53:27;8.07;;;3.40;;
61531;SDS011;47397;48.194;11.632;2023-04-15T03:54:27;5.47;;;3.60;;
61531;SDS011;47397;48.194;11.632;2023-04-15T03:55:28;3.92;;;2.95;;
61531;SDS011;47397;48.194;11.632;2023-04-15T03:56:28;4.55;;;3.15;;
61531;SDS011;47397;48.194;11.632;2023-04-15T03:57:30;5.32;;;3.10;;
61531;SDS011;47397;48.194;11.632;2023-04-15T03:58:30;5.10;;;3.28;;
61531;SDS011;47397;48.194;11.632;2023-04-15T03:59:30;5.72;;;3.50;;
61531;SDS011;47397;48.194;11.632;2023-04-15T04:00:31;5.05;;;3.28;;
61531;SDS011;47397;48.194;11.632;2023-04-15T04:01:31;5.20;;;3.20;;
61531;SDS011;47397;48.194;11.632;2023-04-15T04:02:32;4.55;;;3.40;;
61531;SDS011;47397;48.194;11.632;2023-04-15T04:03:32;6.47;;;3.88;;
61531;SDS011;47397;48.194;11.632;2023-04-15T04:04:32;4.50;;;3.60;;
61531;SDS011;47397;48.194;11.632;2023-04-15T04:05:33;4.22;;;2.97;;
61531;SDS011;47397;48.194;11.632;2023-04-15T04:06:33;5.95;;;3.08;;
61531;SDS011;47397;48.194;11.632;2023-04-15T04:07:34;4.85;;;3.30;;
61531;SDS011;47397;48.194;11.632;2023-04-15T04:08:34;5.25;;;3.42;;
61531;SDS011;47397;48.194;11.632;2023-04-15T04:09:35;5.20;;;3.65;;
61531;SDS011;47397;48.194;11.632;2023-04-15T04:10:35;4.13;;;3.20;;
61531;SDS011;47397;48.194;11.632;2023-04-15T04:11:35;5.18;;;2.92;;
61531;SDS011;47397;48.194;11.632;2023-04-15T04:12:37;5.30;;;3.53;;
61531;SDS011;47397;48.194;11.632;2023-04-15T04:13:38;4.80;;;2.78;;
61531;SDS011;47397;48.194;11.632;2023-04-15T04:14:38;4.18;;;3.08;;
61531;SDS011;47397;48.194;11.632;2023-04-15T04:15:38;5.07;;;3.10;;
61531;SDS011;47397;48.194;11.632;2023-04-15T04:16:39;6.13;;;3.50;;
61531;SDS011;47397;48.194;11.632;2023-04-15T04:17:39;5.38;;;3.20;;
61531;SDS011;47397;48.194;11.632;2023-04-15T04:18:40;6.50;;;3.28;;
61531;SDS011;47397;48.194;11.632;2023-04-15T04:19:40;4.88;;;3.45;;
61531;SDS011;47397;48.194;11.632;2023-04-15T04:20:40;4.13;;;2.85;;
61531;SDS011;47397;48.194;11.632;2023-04-15T04:21:41;4.93;;;3.05;;
61531;SDS011;47397;48.194;11.632;2023-04-15T04:22:41;5.90;;;3.40;;
61531;SDS011;47397;48.194;11.632;2023-04-15T04:23:42;4.63;;;3.25;;
61531;SDS011;47397;48.194;11.632;2023-04-15T04:24:42;5.13;;;2.70;;
61531;SDS011;47397;48.194;11.632;2023-04-15T04:25:42;4.80;;;3.25;;
61531;SDS011;47397;48.194;11.632;2023-04-15T04:26:43;4.13;;;2.83;;
61531;SDS011;47397;48.194;11.632;2023-04-15T04:27:45;5.72;;;3.28;;
61531;SDS011;47397;48.194;11.632;2023-04-15T04:28:45;5.13;;;2.97;;
61531;SDS011;47397;48.194;11.632;2023-04-15T04:29:45;3.85;;;2.75;;
61531;SDS011;47397;48.194;11.632;2023-04-15T04:30:46;4.65;;;3.20;;
61531;SDS011;47397;48.194;11.632;2023-04-15T04:31:46;4.63;;;2.90;;
61531;SDS011;47397;48.194;11.632;2023-04-15T04:32:47;4.35;;;3.20;;
61531;SDS011;47397;48.194;11.632;2023-04-15T04:33:48;4.90;;;3.17;;
61531;SDS011;47397;48.194;11.632;2023-04-15T04:34:49;4.97;;;3.28;;
61531;SDS011;47397;48.194;11.632;2023-04-15T04:35:49;5.22;;;3.20;;
61531;SDS011;47397;48.194;11.632;2023-04-15T04:36:49;4.50;;;3.10;;
61531;SDS011;47397;48.194;11.632;2023-04-15T04:37:50;5.05;;;2.97;;
61531;SDS011;47397;48.194;11.632;2023-04-15T04:38:50;4.75;;;2.88;;
61531;SDS011;47397;48.194;11.632;2023-04-15T04:39:51;5.50;;;3.05;;
61531;SDS011;47397;48.194;11.632;2023-04-15T04:40:51;3.50;;;3.03;;
61531;SDS011;47397;48.194;11.632;2023-04-15T04:41:52;4.95;;;2.65;;
61531;SDS011;47397;48.194;11.632;2023-04-15T04:42:53;5.55;;;2.95;;
61531;SDS011;47397;48.194;11.632;2023-04-15T04:43:54;4.18;;;2.70;;
61531;SDS011;47397;48.194;11.632;2023-04-15T04:44:54;5.10;;;2.90;;
61531;SDS011;47397;48.194;11.632;2023-04-15T04:45:54;3.47;;;2.78;;
61531;SDS011;47397;48.194;11.632;2023-04-15T04:46:55;4.43;;;3.10;;
61531;SDS011;47397;48.194;11.632;2023-04-15T04:47:55;3.63;;;2.90;;
61531;SDS011;47397;48.194;11.632;2023-04-15T04:48:56;4.82;;;3.00;;
61531;SDS011;47397;48.194;11.632;2023-04-15T04:49:56;5.18;;;3.22;;
61531;SDS011;47397;48.194;11.632;2023-04-15T04:50:56;4.72;;;3.10;;
61531;SDS011;47397;48.194;11.632;2023-04-15T04:51:57;6.18;;;3.13;;
61531;SDS011;47397;48.194;11.632;2023-04-15T04:52:58;5.80;;;3.03;;
61531;SDS011;47397;48.194;11.632;2023-04-15T04:53:58;3.63;;;2.70;;
61531;SDS011;47397;48.194;11.632;2023-04-15T04:54:59;3.85;;;2.50;;
61531;SDS011;47397;48.194;11.632;2023-04-15T04:55:59;4.45;;;2.70;;
61531;SDS011;47397;48.194;11.632;2023-04-15T04:56:59;5.70;;;3.33;;
61531;SDS011;47397;48.194;11.632;2023-04-15T04:58:01;5.20;;;3.38;;
61531;SDS011;47397;48.194;11.632;2023-04-15T04:59:01;5.80;;;2.67;;
61531;SDS011;47397;48.194;11.632;2023-04-15T05:00:02;5.03;;;2.60;;
61531;SDS011;47397;48.194;11.632;2023-04-15T05:01:03;6.40;;;2.97;;
61531;SDS011;47397;48.194;11.632;2023-04-15T05:02:03;4.20;;;2.60;;
61531;SDS011;47397;48.194;11.632;2023-04-15T05:03:04;4.72;;;3.10;;
61531;SDS011;47397;48.194;11.632;2023-04-15T05:04:04;4.75;;;2.72;;
61531;SDS011;47397;48.194;11.632;2023-04-15T05:05:05;4.88;;;2.75;;
61531;SDS011;47397;48.194;11.632;2023-04-15T05:06:06;4.03;;;2.75;;
61531;SDS011;47397;48.194;11.632;2023-04-15T05:07:06;4.45;;;2.65;;
61531;SDS011;47397;48.194;11.632;2023-04-15T05:08:07;5.22;;;2.55;;
61531;SDS011;47397;48.194;11.632;2023-04-15T05:09:07;5.97;;;3.05;;
61531;SDS011;47397;48.194;11.632;2023-04-15T05:10:08;7.07;;;2.70;;
61531;SDS011;47397;48.194;11.632;2023-04-15T05:11:09;7.20;;;2.75;;
61531;SDS011;47397;48.194;11.632;2023-04-15T05:12:09;5.68;;;2.70;;
61531;SDS011;47397;48.194;11.632;2023-04-15T05:13:11;4.22;;;2.70;;
61531;SDS011;47397;48.194;11.632;2023-04-15T05:14:11;4.38;;;2.50;;
61531;SDS011;47397;48.194;11.632;2023-04-15T05:15:11;4.68;;;2.70;;
61531;SDS011;47397;48.194;11.632;2023-04-15T05:16:12;3.75;;;2.38;;
61531;SDS011;47397;48.194;11.632;2023-04-15T05:17:12;5.20;;;2.90;;
61531;SDS011;47397;48.194;11.632;2023-04-15T05:18:13;4.50;;;2.75;;
61531;SDS011;47397;48.194;11.632;2023-04-15T05:19:13;4.60;;;2.40;;
61531;SDS011;47397;48.194;11.632;2023-04-15T05:20:14;4.50;;;2.53;;
61531;SDS011;47397;48.194;11.632;2023-04-15T05:21:14;5.03;;;2.70;;
61531;SDS011;47397;48.194;11.632;2023-04-15T05:22:14;5.85;;;2.47;;
61531;SDS011;47397;48.194;11.632;2023-04-15T05:23:15;6.10;;;2.78;;
61531;SDS011;47397;48.194;11.632;2023-04-15T05:24:15;4.65;;;2.40;;
61531;SDS011;47397;48.194;11.632;2023-04-15T05:25:16;3.92;;;2.50;;
61531;SDS011;47397;48.194;11.632;2023-04-15T05:26:16;5.68;;;2.53;;
61531;SDS011;47397;48.194;11.632;2023-04-15T05:27:17;4.68;;;2.78;;
61531;SDS011;47397;48.194;11.632;2023-04-15T05:28:18;5.25;;;2.78;;
61531;SDS011;47397;48.194;11.632;2023-04-15T05:29:19;4.70;;;2.50;;
61531;SDS011;47397;48.194;11.632;2023-04-15T05:30:19;4.43;;;2.50;;
61531;SDS011;47397;48.194;11.632;2023-04-15T05:31:20;4.10;;;2.33;;
61531;SDS011;47397;48.194;11.632;2023-04-15T05:32:20;4.05;;;2.63;;
61531;SDS011;47397;48.194;11.632;2023-04-15T05:33:20;5.38;;;2.72;;
61531;SDS011;47397;48.194;11.632;2023-04-15T05:34:21;5.47;;;2.30;;
61531;SDS011;47397;48.194;11.632;2023-04-15T05:35:22;3.30;;;2.30;;
61531;SDS011;47397;48.194;11.632;2023-04-15T05:36:22;3.65;;;2.20;;
61531;SDS011;47397;48.194;11.632;2023-04-15T05:37:22;3.13;;;2.20;;
61531;SDS011;47397;48.194;11.632;2023-04-15T05:38:23;3.75;;;2.40;;
61531;SDS011;47397;48.194;11.632;2023-04-15T05:39:23;3.95;;;2.20;;
61531;SDS011;47397;48.194;11.632;2023-04-15T05:40:24;3.42;;;2.05;;
61531;SDS011;47397;48.194;11.632;2023-04-15T05:41:24;4.63;;;2.20;;
61531;SDS011;47397;48.194;11.632;2023-04-15T05:42:24;4.70;;;2.22;;
61531;SDS011;47397;48.194;11.632;2023-04-15T05:43:26;4.22;;;2.30;;
61531;SDS011;47397;48.194;11.632;2023-04-15T05:44:27;5.80;;;2.38;;
61531;SDS011;47397;48.194;11.632;2023-04-15T05:45:27;4.93;;;2.10;;
61531;SDS011;47397;48.194;11.632;2023-04-15T05:46:27;3.67;;;2.30;;
61531;SDS011;47397;48.194;11.632;2023-04-15T05:47:28;5.15;;;2.80;;
61531;SDS011;47397;48.194;11.632;2023-04-15T05:48:28;4.20;;;2.08;;
61531;SDS011;47397;48.194;11.632;2023-04-15T05:49:28;3.58;;;2.58;;
61531;SDS011;47397;48.194;11.632;2023-04-15T05:50:29;3.60;;;2.10;;
61531;SDS011;47397;48.194;11.632;2023-04-15T05:51:29;4.03;;;2.20;;
61531;SDS011;47397;48.194;11.632;2023-04-15T05:52:30;3.88;;;2.35;;
61531;SDS011;47397;48.194;11.632;2023-04-15T05:53:30;4.93;;;2.17;;
61531;SDS011;47397;48.194;11.632;2023-04-15T05:54:31;4.57;;;2.55;;
61531;SDS011;47397;48.194;11.632;2023-04-15T05:55:31;5.15;;;2.40;;
61531;SDS011;47397;48.194;11.632;2023-04-15T05:56:31;2.97;;;1.80;;
61531;SDS011;47397;48.194;11.632;2023-04-15T05:57:32;3.33;;;2.03;;
61531;SDS011;47397;48.194;11.632;2023-04-15T05:58:33;4.50;;;1.83;;
61531;SDS011;47397;48.194;11.632;2023-04-15T05:59:34;4.68;;;2.08;;